createdAt,value
2017-12-08T00:00:23.230Z,11.98
2017-12-08T00:01:26.472Z,11.98
2017-12-08T00:02:29.746Z,11.50
2017-12-08T00:03:32.214Z,11.25
2017-12-08T00:04:35.095Z,11.90
2017-12-08T00:05:38.346Z,12.37
2017-12-08T00:06:40.854Z,11.80
2017-12-08T00:07:44.117Z,11.93
2017-12-08T00:08:46.583Z,12.35
2017-12-08T00:09:49.083Z,12.48
2017-12-08T00:10:51.597Z,12.27
2017-12-08T00:11:54.068Z,11.90
2017-12-08T00:12:56.659Z,13.45
2017-12-08T00:13:59.161Z,12.23
2017-12-08T00:15:01.693Z,13.18
2017-12-08T00:16:04.163Z,12.23
2017-12-08T00:17:06.674Z,12.63
2017-12-08T00:18:09.193Z,13.48
2017-12-08T00:19:11.695Z,12.80
2017-12-08T00:20:14.170Z,13.00
2017-12-08T00:21:16.654Z,12.98
2017-12-08T00:22:19.133Z,12.80
2017-12-08T00:23:21.692Z,13.18
2017-12-08T00:24:24.162Z,12.80
2017-12-08T00:25:26.646Z,13.07
2017-12-08T00:26:29.122Z,12.90
2017-12-08T00:27:31.691Z,13.57
2017-12-08T00:28:34.205Z,13.38
2017-12-08T00:29:37.474Z,13.80
2017-12-08T00:30:39.955Z,13.00
2017-12-08T00:31:42.430Z,13.90
2017-12-08T00:32:44.911Z,14.80
2017-12-08T00:33:54.231Z,13.62
2017-12-08T00:34:56.748Z,13.68
2017-12-08T00:35:59.220Z,13.07
2017-12-08T00:37:01.695Z,13.32
2017-12-08T00:38:04.632Z,15.07
2017-12-08T00:39:07.166Z,13.88
2017-12-08T00:40:09.679Z,12.68
2017-12-08T00:41:12.154Z,15.23
2017-12-08T00:42:14.738Z,15.00
2017-12-08T00:43:17.218Z,13.40
2017-12-08T00:44:19.685Z,13.80
2017-12-08T00:45:22.459Z,13.15
2017-12-08T00:46:25.126Z,14.02
2017-12-08T00:47:28.377Z,14.43
2017-12-08T00:48:31.638Z,14.87
2017-12-08T00:49:34.110Z,14.80
2017-12-08T00:50:36.639Z,15.43
2017-12-08T00:51:39.097Z,14.50
2017-12-08T00:52:41.581Z,13.93
2017-12-08T00:53:44.155Z,14.82
2017-12-08T00:54:46.626Z,14.65
2017-12-08T00:55:49.108Z,14.30
2017-12-08T00:56:51.587Z,14.15
2017-12-08T00:57:54.152Z,15.50
2017-12-08T00:58:56.621Z,14.35
2017-12-08T00:59:59.086Z,14.32
2017-12-08T01:02:11.075Z,14.93
2017-12-08T01:03:13.646Z,14.73
2017-12-08T01:04:16.110Z,14.25
2017-12-08T01:05:18.575Z,14.57
2017-12-08T01:06:22.167Z,14.80
2017-12-08T01:07:24.630Z,13.85
2017-12-08T01:08:27.138Z,14.23
2017-12-08T01:09:29.615Z,14.63
2017-12-08T01:10:32.086Z,14.52
2017-12-08T01:11:34.677Z,14.18
2017-12-08T01:12:37.155Z,13.15
2017-12-08T01:13:39.730Z,13.90
2017-12-08T01:14:42.255Z,14.48
2017-12-08T01:15:44.719Z,14.75
2017-12-08T01:16:47.190Z,14.52
2017-12-08T01:17:49.676Z,14.80
2017-12-08T01:18:52.152Z,15.38
2017-12-08T01:19:54.610Z,14.00
2017-12-08T01:20:57.095Z,13.85
2017-12-08T01:22:00.325Z,13.95
2017-12-08T01:23:03.588Z,13.52
2017-12-08T01:24:06.075Z,15.40
2017-12-08T01:25:08.538Z,13.48
2017-12-08T01:26:11.056Z,13.07
2017-12-08T01:27:13.591Z,13.60
2017-12-08T01:28:16.238Z,13.20
2017-12-08T01:29:18.714Z,13.02
2017-12-08T01:30:21.929Z,13.30
2017-12-08T01:31:25.206Z,12.30
2017-12-08T01:32:28.447Z,12.43
2017-12-08T01:33:31.702Z,12.23
2017-12-08T01:34:34.169Z,12.02
2017-12-08T01:35:36.635Z,12.27
2017-12-08T01:36:39.895Z,12.45
2017-12-08T01:37:42.368Z,12.50
2017-12-08T01:38:44.875Z,12.23
2017-12-08T01:39:47.376Z,12.27
2017-12-08T01:40:49.843Z,12.40
2017-12-08T01:41:53.072Z,12.63
2017-12-08T01:42:55.561Z,12.18
2017-12-08T01:43:58.061Z,12.15
2017-12-08T01:45:01.298Z,11.40
2017-12-08T01:46:05.262Z,12.45
2017-12-08T01:47:08.505Z,11.95
2017-12-08T01:48:11.007Z,12.20
2017-12-08T01:49:13.479Z,10.93
2017-12-08T01:50:15.988Z,11.00
2017-12-08T01:51:19.236Z,10.98
2017-12-08T01:52:22.503Z,10.68
2017-12-08T01:53:24.973Z,12.30
2017-12-08T01:54:28.211Z,11.20
2017-12-08T01:55:30.718Z,10.50
2017-12-08T01:56:33.203Z,11.10
2017-12-08T01:57:35.734Z,11.52
2017-12-08T01:58:38.266Z,11.70
2017-12-08T01:59:40.736Z,11.43
2017-12-08T02:00:43.310Z,12.05
2017-12-08T02:01:45.802Z,11.00
2017-12-08T02:02:48.306Z,11.57
2017-12-08T02:03:50.758Z,11.77
2017-12-08T02:04:53.991Z,11.73
2017-12-08T02:05:56.460Z,10.63
2017-12-08T02:06:58.952Z,11.15
2017-12-08T02:08:01.410Z,12.25
2017-12-08T02:09:03.882Z,12.52
2017-12-08T02:10:06.358Z,11.18
2017-12-08T02:11:08.841Z,11.73
2017-12-08T02:12:11.344Z,11.27
2017-12-08T02:13:13.808Z,11.00
2017-12-08T02:14:17.049Z,11.50
2017-12-08T02:15:20.358Z,11.30
2017-12-08T02:16:22.851Z,11.15
2017-12-08T02:17:25.470Z,12.35
2017-12-08T02:18:27.935Z,11.75
2017-12-08T02:19:30.410Z,11.30
2017-12-08T02:20:32.883Z,11.57
2017-12-08T02:21:35.379Z,12.55
2017-12-08T02:22:37.899Z,12.13
2017-12-08T02:23:40.395Z,11.40
2017-12-08T02:24:43.663Z,11.00
2017-12-08T02:25:46.140Z,12.02
2017-12-08T02:26:48.589Z,10.68
2017-12-08T02:27:51.882Z,10.75
2017-12-08T02:28:54.376Z,11.32
2017-12-08T02:29:56.906Z,11.57
2017-12-08T02:30:59.383Z,10.98
2017-12-08T02:32:01.866Z,11.43
2017-12-08T02:33:04.322Z,11.25
2017-12-08T02:34:06.789Z,10.55
2017-12-08T02:35:10.047Z,10.68
2017-12-08T02:36:12.547Z,11.27
2017-12-08T02:37:15.819Z,10.80
2017-12-08T02:38:18.327Z,10.43
2017-12-08T02:39:21.597Z,10.70
2017-12-08T02:40:24.088Z,11.23
2017-12-08T02:41:27.315Z,11.85
2017-12-08T02:42:29.846Z,10.57
2017-12-08T02:43:33.099Z,11.80
2017-12-08T02:44:36.322Z,10.77
2017-12-08T02:45:38.970Z,11.02
2017-12-08T02:46:42.199Z,10.65
2017-12-08T02:47:44.861Z,9.88
2017-12-08T02:48:47.333Z,9.85
2017-12-08T02:49:49.805Z,10.10
2017-12-08T02:50:52.253Z,10.38
2017-12-08T02:51:54.751Z,11.20
2017-12-08T02:52:58.157Z,10.90
2017-12-08T02:54:00.582Z,10.20
2017-12-08T02:55:04.562Z,10.30
2017-12-08T02:56:07.792Z,10.30
2017-12-08T02:57:10.265Z,9.65
2017-12-08T02:58:13.071Z,9.85
2017-12-08T02:59:16.301Z,10.13
2017-12-08T03:00:19.541Z,9.95
2017-12-08T03:01:22.022Z,10.63
2017-12-08T03:02:24.488Z,9.93
2017-12-08T03:03:26.954Z,9.45
2017-12-08T03:04:29.486Z,9.60
2017-12-08T03:05:31.972Z,8.48
2017-12-08T03:06:35.227Z,9.45
2017-12-08T03:07:38.507Z,10.00
2017-12-08T03:08:41.006Z,9.20
2017-12-08T03:09:43.469Z,9.82
2017-12-08T03:10:45.934Z,8.98
2017-12-08T03:11:49.187Z,9.50
2017-12-08T03:12:52.415Z,9.40
2017-12-08T03:13:55.678Z,9.35
2017-12-08T03:14:58.152Z,8.25
2017-12-08T03:16:00.662Z,8.75
2017-12-08T03:17:03.254Z,9.45
2017-12-08T03:18:05.727Z,8.40
2017-12-08T03:19:08.200Z,8.70
2017-12-08T03:20:11.521Z,9.20
2017-12-08T03:21:14.770Z,8.55
2017-12-08T03:22:18.035Z,8.77
2017-12-08T03:23:20.509Z,9.05
2017-12-08T03:24:22.987Z,7.90
2017-12-08T03:25:25.461Z,9.10
2017-12-08T03:26:27.923Z,9.35
2017-12-08T03:27:31.264Z,9.20
2017-12-08T03:28:34.494Z,8.80
2017-12-08T03:29:36.968Z,9.07
2017-12-08T03:30:39.441Z,8.85
2017-12-08T03:31:41.915Z,8.77
2017-12-08T03:32:44.409Z,9.00
2017-12-08T03:33:47.718Z,9.68
2017-12-08T03:34:50.197Z,8.52
2017-12-08T03:35:52.667Z,10.07
2017-12-08T03:36:55.153Z,9.00
2017-12-08T03:37:57.652Z,8.70
2017-12-08T03:39:00.917Z,9.15
2017-12-08T03:40:03.397Z,8.68
2017-12-08T03:41:05.871Z,8.18
2017-12-08T03:42:08.463Z,8.70
2017-12-08T03:43:11.703Z,8.57
2017-12-08T03:44:14.973Z,8.70
2017-12-08T03:45:17.466Z,10.02
2017-12-08T03:46:20.012Z,8.27
2017-12-08T03:47:23.258Z,8.57
2017-12-08T03:48:25.727Z,8.57
2017-12-08T03:49:28.331Z,8.20
2017-12-08T03:50:30.808Z,8.35
2017-12-08T03:51:33.359Z,8.73
2017-12-08T03:52:37.411Z,9.40
2017-12-08T03:53:40.638Z,8.82
2017-12-08T03:54:43.912Z,8.05
2017-12-08T03:55:46.418Z,9.18
2017-12-08T03:56:49.650Z,8.27
2017-12-08T03:57:52.116Z,8.00
2017-12-08T03:58:54.598Z,8.32
2017-12-08T03:59:57.083Z,7.80
2017-12-08T04:00:59.592Z,7.97
2017-12-08T04:02:02.084Z,7.87
2017-12-08T04:03:05.352Z,8.00
2017-12-08T04:04:07.824Z,8.70
2017-12-08T04:05:10.347Z,8.48
2017-12-08T04:06:12.863Z,7.80
2017-12-08T04:07:15.343Z,8.07
2017-12-08T04:08:18.554Z,7.97
2017-12-08T04:09:21.114Z,7.78
2017-12-08T04:10:23.586Z,8.18
2017-12-08T04:11:26.072Z,7.25
2017-12-08T04:12:28.562Z,6.80
2017-12-08T04:13:31.044Z,7.47
2017-12-08T04:14:33.518Z,7.12
2017-12-08T04:15:36.818Z,7.30
2017-12-08T04:16:39.294Z,7.30
2017-12-08T04:17:42.579Z,7.57
2017-12-08T04:18:45.072Z,7.62
2017-12-08T04:19:48.306Z,6.90
2017-12-08T04:20:51.574Z,7.70
2017-12-08T04:21:54.043Z,7.70
2017-12-08T04:22:56.546Z,7.20
2017-12-08T04:23:59.010Z,8.23
2017-12-08T04:25:02.245Z,7.87
2017-12-08T04:26:04.705Z,7.37
2017-12-08T04:27:07.219Z,6.60
2017-12-08T04:28:10.519Z,7.62
2017-12-08T04:29:12.975Z,7.45
2017-12-08T04:30:16.201Z,6.78
2017-12-08T04:31:18.667Z,6.60
2017-12-08T04:32:21.137Z,7.07
2017-12-08T04:33:23.620Z,7.00
2017-12-08T04:34:26.115Z,7.40
2017-12-08T04:35:29.349Z,7.00
2017-12-08T04:36:31.921Z,7.55
2017-12-08T04:37:34.425Z,7.40
2017-12-08T04:38:36.964Z,7.25
2017-12-08T04:39:39.452Z,6.87
2017-12-08T04:40:41.954Z,7.00
2017-12-08T04:41:44.428Z,7.15
2017-12-08T04:42:47.665Z,6.65
2017-12-08T04:43:50.943Z,6.85
2017-12-08T04:44:53.414Z,6.95
2017-12-08T04:45:55.902Z,6.55
2017-12-08T04:46:58.399Z,6.50
2017-12-08T04:48:00.924Z,7.20
2017-12-08T04:49:03.386Z,6.32
2017-12-08T04:50:05.851Z,7.10
2017-12-08T04:51:09.166Z,6.85
2017-12-08T04:52:11.615Z,6.40
2017-12-08T04:53:14.851Z,6.80
2017-12-08T04:54:18.104Z,6.15
2017-12-08T04:55:21.334Z,6.20
2017-12-08T04:56:23.848Z,6.40
2017-12-08T04:57:26.598Z,5.90
2017-12-08T04:58:29.880Z,5.90
2017-12-08T04:59:32.341Z,5.72
2017-12-08T05:00:34.806Z,6.18
2017-12-08T05:01:37.295Z,5.90
2017-12-08T05:02:39.774Z,5.55
2017-12-08T05:03:42.258Z,6.40
2017-12-08T05:04:44.718Z,6.20
2017-12-08T05:05:47.204Z,5.47
2017-12-08T05:06:49.700Z,5.72
2017-12-08T05:07:52.187Z,6.05
2017-12-08T05:08:55.432Z,5.53
2017-12-08T05:09:57.898Z,5.82
2017-12-08T05:11:00.364Z,5.95
2017-12-08T05:12:03.665Z,5.90
2017-12-08T05:13:06.126Z,5.40
2017-12-08T05:14:08.589Z,6.32
2017-12-08T05:15:11.101Z,5.75
2017-12-08T05:16:13.590Z,5.95
2017-12-08T05:17:16.246Z,6.40
2017-12-08T05:18:18.755Z,6.00
2017-12-08T05:19:22.027Z,5.87
2017-12-08T05:20:24.547Z,5.70
2017-12-08T05:21:27.061Z,5.32
2017-12-08T05:22:30.295Z,5.75
2017-12-08T05:23:33.516Z,5.40
2017-12-08T05:24:35.982Z,6.10
2017-12-08T05:25:38.454Z,5.68
2017-12-08T05:26:40.949Z,6.00
2017-12-08T05:27:43.452Z,5.80
2017-12-08T05:28:45.917Z,5.40
2017-12-08T05:29:48.414Z,5.43
2017-12-08T05:30:50.882Z,6.00
2017-12-08T05:31:53.377Z,6.10
2017-12-08T05:32:55.859Z,5.28
2017-12-08T05:33:59.099Z,6.15
2017-12-08T05:35:02.332Z,5.60
2017-12-08T05:36:04.819Z,5.35
2017-12-08T05:37:07.311Z,5.57
2017-12-08T05:38:10.567Z,6.00
2017-12-08T05:39:13.026Z,5.45
2017-12-08T05:40:15.485Z,5.95
2017-12-08T05:41:18.736Z,5.57
2017-12-08T05:42:21.995Z,5.55
2017-12-08T05:43:24.469Z,6.50
2017-12-08T05:44:27.695Z,5.50
2017-12-08T05:45:30.160Z,5.68
2017-12-08T05:46:33.433Z,5.40
2017-12-08T05:47:35.898Z,5.55
2017-12-08T05:48:38.390Z,5.87
2017-12-08T05:49:40.851Z,5.65
2017-12-08T05:50:44.106Z,5.80
2017-12-08T05:51:46.574Z,5.50
2017-12-08T05:52:49.055Z,5.72
2017-12-08T05:53:51.611Z,4.95
2017-12-08T05:54:54.066Z,5.40
2017-12-08T05:55:56.563Z,5.60
2017-12-08T05:56:59.017Z,5.35
2017-12-08T05:58:01.519Z,5.72
2017-12-08T05:59:03.993Z,5.22
2017-12-08T06:00:06.472Z,5.53
2017-12-08T06:01:08.946Z,6.05
2017-12-08T06:02:11.422Z,5.40
2017-12-08T06:03:13.894Z,5.35
2017-12-08T06:04:16.715Z,5.85
2017-12-08T06:05:19.179Z,5.85
2017-12-08T06:06:22.402Z,5.75
2017-12-08T06:07:24.910Z,6.53
2017-12-08T06:08:27.414Z,4.97
2017-12-08T06:09:29.913Z,5.87
2017-12-08T06:10:32.395Z,5.87
2017-12-08T06:11:34.864Z,5.68
2017-12-08T06:12:37.331Z,5.60
2017-12-08T06:13:39.791Z,5.50
2017-12-08T06:14:43.044Z,5.25
2017-12-08T06:15:46.296Z,6.75
2017-12-08T06:16:49.525Z,5.43
2017-12-08T06:17:52.775Z,5.40
2017-12-08T06:18:56.034Z,5.60
2017-12-08T06:19:58.509Z,5.65
2017-12-08T06:21:01.004Z,6.03
2017-12-08T06:22:03.500Z,6.43
2017-12-08T06:23:05.997Z,5.80
2017-12-08T06:24:08.446Z,5.95
2017-12-08T06:25:10.936Z,5.43
2017-12-08T06:26:13.407Z,6.10
2017-12-08T06:27:20.884Z,6.03
2017-12-08T06:28:23.338Z,5.65
2017-12-08T06:29:26.598Z,5.53
2017-12-08T06:30:29.098Z,6.40
2017-12-08T06:31:31.652Z,6.30
2017-12-08T06:32:34.877Z,6.00
2017-12-08T06:33:38.112Z,6.12
2017-12-08T06:34:40.570Z,4.90
2017-12-08T06:35:43.100Z,6.25
2017-12-08T06:36:45.562Z,6.45
2017-12-08T06:37:48.034Z,5.60
2017-12-08T06:38:51.263Z,5.43
2017-12-08T06:39:54.514Z,5.62
2017-12-08T06:40:57.738Z,5.53
2017-12-08T06:42:00.221Z,6.00
2017-12-08T06:43:02.738Z,5.65
2017-12-08T06:44:05.217Z,4.85
2017-12-08T06:45:07.767Z,6.60
2017-12-08T06:46:10.231Z,6.07
2017-12-08T06:47:12.727Z,5.53
2017-12-08T06:48:15.200Z,5.80
2017-12-08T06:49:17.666Z,5.53
2017-12-08T06:50:20.142Z,5.80
2017-12-08T06:51:22.730Z,5.70
2017-12-08T06:52:25.270Z,5.53
2017-12-08T06:53:27.780Z,5.65
2017-12-08T06:54:30.255Z,5.55
2017-12-08T06:55:32.748Z,5.53
2017-12-08T06:56:35.207Z,5.25
2017-12-08T06:57:37.682Z,5.20
2017-12-08T06:58:40.176Z,5.10
2017-12-08T06:59:43.399Z,5.32
2017-12-08T07:00:45.873Z,5.22
2017-12-08T07:01:48.335Z,4.90
2017-12-08T07:02:54.209Z,5.40
2017-12-08T07:03:56.699Z,5.03
2017-12-08T07:05:00.030Z,5.65
2017-12-08T07:06:02.535Z,6.00
2017-12-08T07:07:05.066Z,5.00
2017-12-08T07:08:07.562Z,5.60
2017-12-08T07:09:10.018Z,5.10
2017-12-08T07:10:13.277Z,5.07
2017-12-08T07:11:15.814Z,5.10
2017-12-08T07:12:19.076Z,5.80
2017-12-08T07:13:21.539Z,5.25
2017-12-08T07:14:24.111Z,5.90
2017-12-08T07:15:27.342Z,5.65
2017-12-08T07:16:30.648Z,6.20
2017-12-08T07:17:33.137Z,5.85
2017-12-08T07:18:35.582Z,5.30
2017-12-08T07:19:38.062Z,5.82
2017-12-08T07:20:41.298Z,5.10
2017-12-08T07:21:45.213Z,5.95
2017-12-08T07:22:47.674Z,5.85
2017-12-08T07:23:50.226Z,4.68
2017-12-08T07:24:52.744Z,4.97
2017-12-08T07:25:55.394Z,4.70
2017-12-08T07:26:57.941Z,5.20
2017-12-08T07:28:00.565Z,5.70
2017-12-08T07:29:03.058Z,6.12
2017-12-08T07:30:05.706Z,6.05
2017-12-08T07:31:08.302Z,5.40
2017-12-08T07:32:11.630Z,5.72
2017-12-08T07:33:14.178Z,4.85
2017-12-08T07:34:17.442Z,5.30
2017-12-08T07:35:19.941Z,5.72
2017-12-08T07:36:23.300Z,5.50
2017-12-08T07:37:25.874Z,5.22
2017-12-08T07:38:28.530Z,5.40
2017-12-08T07:39:30.995Z,5.30
2017-12-08T07:40:33.477Z,5.68
2017-12-08T07:41:35.956Z,6.05
2017-12-08T07:42:38.420Z,5.50
2017-12-08T07:43:40.910Z,5.45
2017-12-08T07:44:43.436Z,5.43
2017-12-08T07:45:45.868Z,7.00
2017-12-08T07:46:48.342Z,5.62
2017-12-08T07:47:51.406Z,5.53
2017-12-08T07:48:53.921Z,5.00
2017-12-08T07:49:57.165Z,5.80
2017-12-08T07:51:00.011Z,5.47
2017-12-08T07:52:02.616Z,6.10
2017-12-08T07:53:06.209Z,5.90
2017-12-08T07:54:08.841Z,6.15
2017-12-08T07:55:11.478Z,4.90
2017-12-08T07:56:14.190Z,5.15
2017-12-08T07:57:16.869Z,5.12
2017-12-08T07:58:19.547Z,5.18
2017-12-08T07:59:22.052Z,5.50
2017-12-08T08:00:26.101Z,5.47
2017-12-08T08:01:28.856Z,4.95
2017-12-08T08:02:31.586Z,4.85
2017-12-08T08:03:34.652Z,5.32
2017-12-08T08:04:37.149Z,5.82
2017-12-08T08:05:39.782Z,5.87
2017-12-08T08:06:42.438Z,4.75
2017-12-08T08:07:45.043Z,5.45
2017-12-08T08:08:47.843Z,4.90
2017-12-08T08:09:51.362Z,5.35
2017-12-08T08:10:54.437Z,5.28
2017-12-08T08:11:56.921Z,5.35
2017-12-08T08:12:59.480Z,5.15
2017-12-08T08:14:01.977Z,5.47
2017-12-08T08:15:04.823Z,5.40
2017-12-08T08:16:07.333Z,5.32
2017-12-08T08:17:11.345Z,4.90
2017-12-08T08:18:13.808Z,5.82
2017-12-08T08:19:16.269Z,4.80
2017-12-08T08:20:19.500Z,5.30
2017-12-08T08:21:22.082Z,4.93
2017-12-08T08:22:24.533Z,5.10
2017-12-08T08:23:27.063Z,5.78
2017-12-08T08:24:29.527Z,5.20
2017-12-08T08:25:32.000Z,4.95
2017-12-08T08:26:34.487Z,5.40
2017-12-08T08:27:36.959Z,5.75
2017-12-08T08:28:39.738Z,5.62
2017-12-08T08:29:42.271Z,4.60
2017-12-08T08:30:44.778Z,5.60
2017-12-08T08:31:48.046Z,5.20
2017-12-08T08:32:50.515Z,5.05
2017-12-08T08:33:52.994Z,5.00
2017-12-08T08:34:55.514Z,5.00
2017-12-08T08:35:58.010Z,4.90
2017-12-08T08:37:01.275Z,4.70
2017-12-08T08:38:03.759Z,4.70
2017-12-08T08:39:07.921Z,4.40
2017-12-08T08:40:11.537Z,4.25
2017-12-08T08:41:14.075Z,3.95
2017-12-08T08:42:16.558Z,4.80
2017-12-08T08:43:19.040Z,3.65
2017-12-08T08:44:21.932Z,3.78
2017-12-08T08:45:24.418Z,3.70
2017-12-08T08:46:26.898Z,3.60
2017-12-08T08:47:29.373Z,4.57
2017-12-08T08:48:31.822Z,5.10
2017-12-08T08:49:34.290Z,4.85
2017-12-08T08:50:36.850Z,4.55
2017-12-08T08:51:40.095Z,3.87
2017-12-08T08:52:43.349Z,4.65
2017-12-08T08:53:46.577Z,4.12
2017-12-08T08:54:49.809Z,5.18
2017-12-08T08:55:52.375Z,4.53
2017-12-08T08:56:54.862Z,4.50
2017-12-08T08:57:57.331Z,5.20
2017-12-08T08:58:59.839Z,4.30
2017-12-08T09:00:02.366Z,4.62
2017-12-08T09:01:04.848Z,4.90
2017-12-08T09:02:07.342Z,4.87
2017-12-08T09:03:09.861Z,5.07
2017-12-08T09:04:12.359Z,5.15
2017-12-08T09:05:15.610Z,4.60
2017-12-08T09:06:18.137Z,4.85
2017-12-08T09:07:20.618Z,4.90
2017-12-08T09:08:23.075Z,4.80
2017-12-08T09:09:26.346Z,4.32
2017-12-08T09:10:28.859Z,4.43
2017-12-08T09:11:31.337Z,4.40
2017-12-08T09:12:33.831Z,4.10
2017-12-08T09:13:36.304Z,3.95
2017-12-08T09:14:40.295Z,5.20
2017-12-08T09:15:43.278Z,4.82
2017-12-08T09:16:45.757Z,4.20
2017-12-08T09:17:48.256Z,4.55
2017-12-08T09:18:51.509Z,4.55
2017-12-08T09:19:54.756Z,4.60
2017-12-08T09:20:57.251Z,4.37
2017-12-08T09:21:59.728Z,4.57
2017-12-08T09:23:02.255Z,4.45
2017-12-08T09:24:04.735Z,4.18
2017-12-08T09:25:07.979Z,4.22
2017-12-08T09:26:11.212Z,5.22
2017-12-08T09:27:13.763Z,5.22
2017-12-08T09:28:17.067Z,4.95
2017-12-08T09:29:19.552Z,4.55
2017-12-08T09:30:22.014Z,4.12
2017-12-08T09:31:24.476Z,4.25
2017-12-08T09:32:27.731Z,4.78
2017-12-08T09:33:30.206Z,3.97
2017-12-08T09:34:32.671Z,4.40
2017-12-08T09:35:35.926Z,5.05
2017-12-08T09:36:38.395Z,4.05
2017-12-08T09:37:42.036Z,5.07
2017-12-08T09:38:44.495Z,4.20
2017-12-08T09:39:47.109Z,3.83
2017-12-08T09:40:49.682Z,4.20
2017-12-08T09:41:53.478Z,4.45
2017-12-08T09:42:55.928Z,4.10
2017-12-08T09:43:58.428Z,4.37
2017-12-08T09:45:00.942Z,4.40
2017-12-08T09:46:03.379Z,4.07
2017-12-08T09:47:05.859Z,3.78
2017-12-08T09:48:08.359Z,4.15
2017-12-08T09:49:11.616Z,3.75
2017-12-08T09:50:14.890Z,4.18
2017-12-08T09:51:17.400Z,4.68
2017-12-08T09:52:19.903Z,4.15
2017-12-08T09:53:23.175Z,4.10
2017-12-08T09:54:25.740Z,4.53
2017-12-08T09:55:28.212Z,3.80
2017-12-08T09:56:30.695Z,4.47
2017-12-08T09:57:33.196Z,3.70
2017-12-08T09:58:35.665Z,4.22
2017-12-08T09:59:38.890Z,4.65
2017-12-08T10:00:41.372Z,4.55
2017-12-08T10:01:43.978Z,3.95
2017-12-08T10:02:47.220Z,4.18
2017-12-08T10:03:49.714Z,3.97
2017-12-08T10:04:53.724Z,4.50
2017-12-08T10:05:56.215Z,4.47
2017-12-08T10:06:59.454Z,4.35
2017-12-08T10:08:02.730Z,4.00
2017-12-08T10:09:05.195Z,3.58
2017-12-08T10:10:07.716Z,4.78
2017-12-08T10:11:10.185Z,4.25
2017-12-08T10:12:13.440Z,4.00
2017-12-08T10:13:16.004Z,4.47
2017-12-08T10:14:18.898Z,3.83
2017-12-08T10:15:22.107Z,3.80
2017-12-08T10:16:24.572Z,4.10
2017-12-08T10:17:27.061Z,4.15
2017-12-08T10:18:29.539Z,4.40
2017-12-08T10:19:32.043Z,4.45
2017-12-08T10:20:34.501Z,3.90
2017-12-08T10:21:36.980Z,3.62
2017-12-08T10:22:39.456Z,4.28
2017-12-08T10:23:41.935Z,3.85
2017-12-08T10:24:45.277Z,4.53
2017-12-08T10:25:48.517Z,3.78
2017-12-08T10:26:51.816Z,5.85
2017-12-08T10:27:54.275Z,3.80
2017-12-08T10:28:57.494Z,5.05
2017-12-08T10:29:59.994Z,3.70
2017-12-08T10:31:02.455Z,3.95
2017-12-08T10:32:05.751Z,3.87
2017-12-08T10:33:08.191Z,3.60
2017-12-08T10:34:10.786Z,3.72
2017-12-08T10:35:13.301Z,4.10
2017-12-08T10:36:15.763Z,4.10
2017-12-08T10:37:18.239Z,3.20
2017-12-08T10:38:21.519Z,3.75
2017-12-08T10:39:23.983Z,3.67
2017-12-08T10:40:26.468Z,3.40
2017-12-08T10:41:28.935Z,4.03
2017-12-08T10:42:31.399Z,3.20
2017-12-08T10:43:33.884Z,3.70
2017-12-08T10:44:36.388Z,4.05
2017-12-08T10:45:39.031Z,3.37
2017-12-08T10:46:41.607Z,3.40
2017-12-08T10:47:44.091Z,3.20
2017-12-08T10:48:46.568Z,3.58
2017-12-08T10:49:49.917Z,3.87
2017-12-08T10:50:52.381Z,3.30
2017-12-08T10:51:54.847Z,2.92
2017-12-08T10:52:57.381Z,2.92
2017-12-08T10:53:59.917Z,2.78
2017-12-08T10:55:02.386Z,2.40
2017-12-08T10:56:04.847Z,2.70
2017-12-08T10:57:07.386Z,2.05
2017-12-08T10:58:09.878Z,2.60
2017-12-08T10:59:13.119Z,2.58
2017-12-08T11:00:16.434Z,2.53
2017-12-08T11:01:18.910Z,2.30
2017-12-08T11:02:21.362Z,2.25
2017-12-08T11:03:23.847Z,2.75
2017-12-08T11:04:27.098Z,2.67
2017-12-08T11:05:29.579Z,2.53
2017-12-08T11:06:32.035Z,2.15
2017-12-08T11:07:35.253Z,2.08
2017-12-08T11:08:37.717Z,2.55
2017-12-08T11:09:40.184Z,2.50
2017-12-08T11:10:42.814Z,2.20
2017-12-08T11:11:45.311Z,2.10
2017-12-08T11:12:47.796Z,2.15
2017-12-08T11:13:51.057Z,2.17
2017-12-08T11:14:54.307Z,2.40
2017-12-08T11:15:57.444Z,2.50
2017-12-08T11:16:59.957Z,2.25
2017-12-08T11:18:03.235Z,2.30
2017-12-08T11:19:05.700Z,2.08
2017-12-08T11:20:08.158Z,2.25
2017-12-08T11:21:11.383Z,2.10
2017-12-08T11:22:14.630Z,2.33
2017-12-08T11:23:17.915Z,2.40
2017-12-08T11:24:20.391Z,2.20
2017-12-08T11:25:23.633Z,2.17
2017-12-08T11:26:26.860Z,2.10
2017-12-08T11:27:29.315Z,2.17
2017-12-08T11:28:32.563Z,2.30
2017-12-08T11:29:35.039Z,2.30
2017-12-08T11:30:37.512Z,2.45
2017-12-08T11:31:39.987Z,2.53
2017-12-08T11:32:42.454Z,2.80
2017-12-08T11:33:45.736Z,2.28
2017-12-08T11:34:48.923Z,2.33
2017-12-08T11:35:52.153Z,2.28
2017-12-08T11:36:54.718Z,1.90
2017-12-08T11:37:57.267Z,2.10
2017-12-08T11:38:59.914Z,2.47
2017-12-08T11:40:02.383Z,2.20
2017-12-08T11:41:05.604Z,2.45
2017-12-08T11:42:08.170Z,2.33
2017-12-08T11:43:10.641Z,1.83
2017-12-08T11:44:13.243Z,1.90
2017-12-08T11:45:15.712Z,2.50
2017-12-08T11:46:19.674Z,2.53
2017-12-08T11:47:22.232Z,2.35
2017-12-08T11:48:24.748Z,2.40
2017-12-08T11:49:27.163Z,2.50
2017-12-08T11:50:30.399Z,2.40
2017-12-08T11:51:33.626Z,1.90
2017-12-08T11:52:36.118Z,2.40
2017-12-08T11:53:38.621Z,2.92
2017-12-08T11:54:41.148Z,2.37
2017-12-08T11:55:43.611Z,2.30
2017-12-08T11:56:46.083Z,2.55
2017-12-08T11:57:49.346Z,1.83
2017-12-08T11:58:51.803Z,2.05
2017-12-08T11:59:54.288Z,2.20
2017-12-08T12:00:56.754Z,2.12
2017-12-08T12:02:00.027Z,2.45
2017-12-08T12:03:03.262Z,1.90
2017-12-08T12:04:06.521Z,2.17
2017-12-08T12:05:09.742Z,1.83
2017-12-08T12:06:12.974Z,2.30
2017-12-08T12:07:15.477Z,2.30
2017-12-08T12:08:17.990Z,2.37
2017-12-08T12:09:20.458Z,2.00
2017-12-08T12:10:23.695Z,2.37
2017-12-08T12:11:26.149Z,2.20
2017-12-08T12:12:29.414Z,1.83
2017-12-08T12:13:31.983Z,2.85
2017-12-08T12:14:35.247Z,2.03
2017-12-08T12:15:38.495Z,2.30
2017-12-08T12:16:41.763Z,2.20
2017-12-08T12:17:44.274Z,2.12
2017-12-08T12:18:47.539Z,2.83
2017-12-08T12:19:50.006Z,2.12
2017-12-08T12:20:54.007Z,2.40
2017-12-08T12:21:56.522Z,2.22
2017-12-08T12:22:59.757Z,1.92
2017-12-08T12:24:02.987Z,2.28
2017-12-08T12:25:05.451Z,2.00
2017-12-08T12:26:07.944Z,1.90
2017-12-08T12:27:10.432Z,2.15
2017-12-08T12:28:12.890Z,2.28
2017-12-08T12:29:17.200Z,2.95
2017-12-08T12:30:19.666Z,2.60
2017-12-08T12:31:22.168Z,2.50
2017-12-08T12:32:24.631Z,2.00
2017-12-08T12:33:27.898Z,2.30
2017-12-08T12:34:30.366Z,2.12
2017-12-08T12:35:32.858Z,2.00
2017-12-08T12:36:35.362Z,2.28
2017-12-08T12:37:38.576Z,2.72
2017-12-08T12:38:41.146Z,2.12
2017-12-08T12:39:43.692Z,2.20
2017-12-08T12:40:46.162Z,2.15
2017-12-08T12:41:49.412Z,2.50
2017-12-08T12:42:51.863Z,2.58
2017-12-08T12:43:55.102Z,2.40
2017-12-08T12:44:57.554Z,2.10
2017-12-08T12:46:00.064Z,2.40
2017-12-08T12:47:02.539Z,2.20
2017-12-08T12:48:05.007Z,2.50
2017-12-08T12:49:07.466Z,2.78
2017-12-08T12:50:09.952Z,2.42
2017-12-08T12:51:12.484Z,2.08
2017-12-08T12:52:14.965Z,2.80
2017-12-08T12:53:17.450Z,2.28
2017-12-08T12:54:19.925Z,2.12
2017-12-08T12:55:22.390Z,2.47
2017-12-08T12:56:24.970Z,2.12
2017-12-08T12:57:27.427Z,2.22
2017-12-08T12:58:29.933Z,2.30
2017-12-08T12:59:33.218Z,2.47
2017-12-08T13:00:35.728Z,2.62
2017-12-08T13:01:38.195Z,2.80
2017-12-08T13:02:40.669Z,2.15
2017-12-08T13:03:43.171Z,2.22
2017-12-08T13:04:45.638Z,2.60
2017-12-08T13:05:48.177Z,2.47
2017-12-08T13:06:50.751Z,2.72
2017-12-08T13:07:53.205Z,2.15
2017-12-08T13:08:55.685Z,2.25
2017-12-08T13:09:58.228Z,2.70
2017-12-08T13:11:00.686Z,2.50
2017-12-08T13:12:03.894Z,2.37
2017-12-08T13:13:06.346Z,2.35
2017-12-08T13:14:08.883Z,1.80
2017-12-08T13:15:11.347Z,2.65
2017-12-08T13:16:13.857Z,2.25
2017-12-08T13:17:16.307Z,2.35
2017-12-08T13:18:18.756Z,2.53
2017-12-08T13:19:22.008Z,1.80
2017-12-08T13:20:24.531Z,2.00
2017-12-08T13:21:27.049Z,2.10
2017-12-08T13:22:30.289Z,2.37
2017-12-08T13:23:33.538Z,2.03
2017-12-08T13:24:36.059Z,2.55
2017-12-08T13:25:39.311Z,2.72
2017-12-08T13:26:41.834Z,2.25
2017-12-08T13:27:44.322Z,2.22
2017-12-08T13:28:46.778Z,2.50
2017-12-08T13:29:50.074Z,1.95
2017-12-08T13:30:52.661Z,2.50
2017-12-08T13:31:55.118Z,2.95
2017-12-08T13:32:57.719Z,2.65
2017-12-08T13:34:00.222Z,2.58
2017-12-08T13:35:03.272Z,2.70
2017-12-08T13:36:06.538Z,2.90
2017-12-08T13:37:09.022Z,2.60
2017-12-08T13:38:12.356Z,3.15
2017-12-08T13:39:14.916Z,2.67
2017-12-08T13:40:17.391Z,2.22
2017-12-08T13:41:19.934Z,3.03
2017-12-08T13:42:22.417Z,2.55
2017-12-08T13:43:24.893Z,2.30
2017-12-08T13:44:28.128Z,2.03
2017-12-08T13:45:30.606Z,2.40
2017-12-08T13:46:33.099Z,2.22
2017-12-08T13:47:36.463Z,2.22
2017-12-08T13:48:39.340Z,2.50
2017-12-08T13:49:41.798Z,1.90